BIKF/KEF METAR and TAF weather

Enter ICAO airport designator
Station Type Date Time Source
BIKF METAR 2020/01/22 15:30 UTC NOAA

BIKF 221530Z 22020KT 9999 VCSH FEW012CB SCT025 03/01 Q1001


Station Type Date Time Source
BIKF Decoded METAR 2020/01/22 15:30 UTC NOAA

Keflavikurflugvollur, Iceland (BIKF) 63-58N 022-36W 54M
Jan 22, 2020 - 10:30 AM EST / 2020.01.22 1530 UTC
Wind: from the SW (220 degrees) at 23 MPH (20 KT):0
Visibility: greater than 7 mile(s):0
Sky conditions: partly cloudy
Weather: showers in the vicinity; Cumulonimbus clouds observed
Temperature: 37 F (3 C)
Dew Point: 33 F (1 C)
Relative Humidity: 86%
Pressure (altimeter): 29.56 in. Hg (1001 hPa)
ob: BIKF 221530Z 22020KT 9999 VCSH FEW012CB SCT025 03/01 Q1001
cycle: 15

Station Type Date Time Source
BIKF TAF 2020/01/22 15:30 UTC NOAA

TAF BIKF 221328Z 2215/2315 23025G35KT 9999 SHRASN BKN020 TX03/2215Z TNM01/2303Z
TEMPO 2215/2218 1500 SHRASN BKN005CB
BECMG 2216/2218 23035G45KT SHSN
TEMPO 2218/2312 0800 SHSN BKN005CB
BECMG 2300/2302 23043G58KT

Example: see airport list